Time;durP1;ratioP1;P1;durP2;ratioP2;P2;SDS_P1;SDS_P2;PMS_P1;PMS_P2;Temp;Humidity;BMP_temperature;BMP_pressure;BME280_temperature;BME280_humidity;BME280_pressure;Samples;Min_cycle;Max_cycle;Signal;HPM_P1;HPM_P2
2023/01/09 00:01:56;;;;;;;2.38;1.42;;;;;;;;;;6207421;23;20074;-82
2023/01/09 00:04:21;;;;;;;3.65;1.55;;;;;;;7.49;100.00;67600.72;6180291;23;20043;-83
2023/01/09 00:06:52;;;;;;;2.78;1.92;;;;;;;7.50;100.00;67599.19;6179273;23;20100;-84
2023/01/09 00:09:21;;;;;;;2.67;1.50;;;;;;;7.49;100.00;67601.28;6206276;23;20021;-83
2023/01/09 00:11:47;;;;;;;3.20;1.65;;;;;;;7.47;100.00;67606.97;6207903;23;20043;-82
2023/01/09 00:14:12;;;;;;;3.10;1.63;;;;;;;;;;6206846;23;20020;-83
2023/01/09 00:16:38;;;;;;;5.68;2.08;;;;;;;7.45;100.00;67597.31;6207903;23;20090;-83
2023/01/09 00:19:03;;;;;;;3.03;1.90;;;;;;;;;;6205824;23;20447;-83
2023/01/09 00:21:28;;;;;;;4.05;2.05;;;;;;;;;;6207325;23;20016;-82
2023/01/09 00:23:54;;;;;;;3.75;2.80;;;;;;;7.43;100.00;67594.50;6208125;23;20024;-84
2023/01/09 00:26:19;;;;;;;4.72;2.25;;;;;;;7.41;100.00;67592.78;6205320;23;20092;-83
2023/01/09 00:28:47;;;;;;;3.78;2.38;;;;;;;7.41;100.00;67598.09;6206352;23;20095;-83
2023/01/09 00:31:12;;;;;;;6.80;3.20;;;;;;;;;;6181403;23;20027;-82
2023/01/09 00:33:42;;;;;;;4.82;2.60;;;;;;;;;;6210512;23;20012;-83
2023/01/09 00:36:08;;;;;;;4.72;2.95;;;;;;;7.37;100.00;67593.56;6208214;23;20087;-84
2023/01/09 00:38:35;;;;;;;6.30;3.30;;;;;;;7.35;100.00;67591.31;6208611;23;20012;-84
2023/01/09 00:41:02;;;;;;;6.45;3.90;;;;;;;7.36;100.00;67591.84;6209126;23;20856;-83
2023/01/09 00:43:40;;;;;;;8.95;4.15;;;;;;;7.31;100.00;67586.78;6206253;23;20013;-84
2023/01/09 00:46:06;;;;;;;7.90;4.15;;;;;;;;;;6205219;23;20016;-83
2023/01/09 00:48:33;;;;;;;7.70;4.07;;;;;;;;;;6208598;23;20027;-83
2023/01/09 00:50:59;;;;;;;6.60;4.00;;;;;;;;;;6208567;23;20020;-83
2023/01/09 00:53:28;;;;;;;5.95;3.20;;;;;;;7.23;100.00;67577.72;6207148;23;20236;-83
2023/01/09 00:55:58;;;;;;;6.82;4.35;;;;;;;7.21;100.00;67575.44;6180393;23;20016;-83
2023/01/09 00:58:23;;;;;;;8.30;3.85;;;;;;;7.21;100.00;67575.44;6207571;23;22191;-82
2023/01/09 01:00:49;;;;;;;8.30;3.78;;;;;;;7.17;100.00;67565.66;6182048;23;20370;-82
2023/01/09 01:03:14;;;;;;;5.93;3.72;;;;;;;7.15;100.00;67569.22;6206721;23;20021;-83
2023/01/09 01:08:23;;;;;;;6.32;2.95;;;;;;;7.11;100.00;67564.16;6209659;23;20359;-83
2023/01/09 01:10:48;;;;;;;4.85;3.28;;;;;;;;;;6209487;23;20017;-83
2023/01/09 01:13:14;;;;;;;5.78;2.88;;;;;;;7.05;100.00;67550.00;6206737;23;20073;-83
2023/01/09 01:15:44;;;;;;;5.88;2.80;;;;;;;7.05;100.00;67557.34;6209621;23;20013;-83
2023/01/09 01:18:10;;;;;;;3.30;2.08;;;;;;;;;;6208464;23;20016;-83
2023/01/09 01:20:35;;;;;;;4.65;2.45;;;;;;;7.00;100.00;67546.97;6181572;23;20187;-84
2023/01/09 01:23:01;;;;;;;4.32;2.17;;;;;;;6.97;100.00;67549.44;6208594;23;20335;-83
2023/01/09 01:25:27;;;;;;;3.53;1.92;;;;;;;6.96;100.00;67547.72;6207956;23;20104;-82
2023/01/09 01:27:52;;;;;;;2.67;1.70;;;;;;;;;;6209486;23;20246;-83
2023/01/09 01:30:18;;;;;;;2.90;1.77;;;;;;;;;;6209036;23;20044;-84
2023/01/09 01:32:44;;;;;;;2.38;1.73;;;;;;;;;;6209264;23;20016;-83
2023/01/09 01:35:10;;;;;;;3.55;1.83;;;;;;;6.84;100.00;67528.88;6216710;23;20171;-83
2023/01/09 01:37:37;;;;;;;3.25;1.90;;;;;;;6.84;100.00;67528.88;6219067;23;20030;-83
2023/01/09 01:40:03;;;;;;;3.25;1.48;;;;;;;6.81;100.00;67530.75;6217365;23;20032;-83
2023/01/09 01:42:30;;;;;;;2.85;1.80;;;;;;;6.80;100.00;67529.63;6227236;23;20084;-82
2023/01/09 01:44:55;;;;;;;2.80;1.70;;;;;;;;;;6223680;23;20331;-83
2023/01/09 01:47:22;;;;;;;3.13;2.10;;;;;;;6.74;100.00;67515.47;6195104;23;20027;-83
2023/01/09 01:49:48;;;;;;;3.38;2.13;;;;;;;6.71;100.00;67512.09;6220482;23;20244;-83
2023/01/09 01:52:14;;;;;;;3.10;1.88;;;;;;;6.68;100.00;67516.63;6214961;23;20083;-82
2023/01/09 01:54:41;;;;;;;2.90;1.70;;;;;;;6.66;100.00;67517.00;6209631;23;20090;-83
2023/01/09 01:57:06;;;;;;;1.90;1.35;;;;;;;6.62;100.00;67509.81;6208542;23;20012;-83
2023/01/09 01:59:33;;;;;;;3.17;1.75;;;;;;;;;;6208211;23;20024;-83
2023/01/09 02:02:00;;;;;;;3.10;1.85;;;;;;;6.54;100.00;67496.06;6208858;23;20481;-83
2023/01/09 02:04:28;;;;;;;2.35;1.50;;;;;;;6.52;100.00;67494.38;6208146;23;20131;-83
2023/01/09 02:06:54;;;;;;;2.63;1.60;;;;;;;;;;6207494;23;20039;-83
2023/01/09 02:09:21;;;;;;;2.28;1.67;;;;;;;;;;6205163;23;20028;-83
2023/01/09 02:11:55;;;;;;;2.90;1.35;;;;;;;;;;6207944;23;20023;-83
2023/01/09 02:14:21;;;;;;;2.95;1.40;;;;;;;;;;6206614;23;20016;-82
2023/01/09 02:17:11;;;;;;;2.63;1.30;;;;;;;6.39;100.00;67484.97;6179748;23;20024;-83
2023/01/09 02:19:39;;;;;;;3.38;1.20;;;;;;;;;;6208826;23;20101;-82
2023/01/09 02:22:10;;;;;;;2.25;1.30;;;;;;;;;;6208326;23;20043;-83
2023/01/09 02:25:07;;;;;;;4.50;1.20;;;;;;;6.27;100.00;67466.69;6207743;23;20018;-83
2023/01/09 02:28:09;;;;;;;3.78;1.52;;;;;;;6.19;100.00;67465.00;6208799;23;20071;-83
2023/01/09 02:31:04;;;;;;;4.13;1.40;;;;;;;6.14;100.00;67457.25;6205781;23;20020;-83
2023/01/09 02:33:46;;;;;;;2.45;1.00;;;;;;;6.10;100.00;67447.47;6207174;23;20080;-83
2023/01/09 02:36:17;;;;;;;1.25;0.95;;;;;;;6.06;100.00;67448.78;6206725;23;20024;-83
2023/01/09 02:39:01;;;;;;;1.92;1.00;;;;;;;;;;6207291;23;20024;-83
2023/01/09 02:41:47;;;;;;;3.45;1.35;;;;;;;6.02;100.00;67438.41;6181594;23;20016;-83
2023/01/09 02:44:33;;;;;;;1.92;1.02;;;;;;;5.96;100.00;67437.47;6207908;23;20020;-83
2023/01/09 02:46:59;;;;;;;2.10;1.23;;;;;;;;;;6206066;23;20493;-83
2023/01/09 02:49:26;;;;;;;2.10;0.88;;;;;;;5.89;100.00;67432.19;6207164;23;20024;-83
2023/01/09 02:51:58;;;;;;;2.92;1.08;;;;;;;5.88;100.00;67423.13;6206100;23;20024;-83
2023/01/09 02:54:26;;;;;;;3.30;1.13;;;;;;;5.81;100.00;67421.06;6206110;23;20044;-84
2023/01/09 02:57:02;;;;;;;2.42;0.90;;;;;;;;;;6207512;23;20016;-83
2023/01/09 02:59:41;;;;;;;2.45;1.30;;;;;;;;;;6205952;23;20074;-83
2023/01/09 03:02:18;;;;;;;2.28;1.33;;;;;;;5.69;100.00;67409.56;6206984;23;20690;-83
2023/01/09 03:04:52;;;;;;;3.35;1.25;;;;;;;;;;6207304;23;20951;-83
2023/01/09 03:07:29;;;;;;;2.50;1.48;;;;;;;5.63;100.00;67400.72;6205806;23;20020;-82
2023/01/09 03:10:07;;;;;;;3.10;1.45;;;;;;;5.59;100.00;67396.75;6181493;23;20013;-83
2023/01/09 03:12:35;;;;;;;3.40;1.75;;;;;;;5.57;100.00;67393.94;6207371;23;20020;-82
2023/01/09 03:15:03;;;;;;;4.28;1.83;;;;;;;5.54;100.00;67393.75;6207084;23;20021;-82
2023/01/09 03:17:35;;;;;;;2.78;1.50;;;;;;;5.54;100.00;67391.13;6207867;23;20019;-83
2023/01/09 03:20:04;;;;;;;3.20;1.30;;;;;;;5.48;100.00;67383.78;6206463;23;20012;-83
2023/01/09 03:22:32;;;;;;;3.55;1.70;;;;;;;5.46;100.00;67382.06;6189161;23;20024;-83
2023/01/09 03:24:57;;;;;;;3.72;1.35;;;;;;;5.43;100.00;67373.41;6167152;23;20024;-82
2023/01/09 03:27:23;;;;;;;3.35;1.50;;;;;;;5.40;100.00;67380.56;6203862;23;20020;-82
2023/01/09 03:29:48;;;;;;;2.50;1.17;;;;;;;;;;6204387;23;20023;-83
2023/01/09 03:32:14;;;;;;;5.18;1.80;;;;;;;5.37;100.00;67371.91;6189390;23;20686;-83
2023/01/09 03:34:39;;;;;;;2.20;1.33;;;;;;;5.34;100.00;67369.06;6204542;23;20017;-82
2023/01/09 03:37:04;;;;;;;5.38;1.27;;;;;;;;;;6201576;23;20025;-83
2023/01/09 03:39:30;;;;;;;3.42;1.63;;;;;;;5.31;100.00;67365.69;6203126;23;20017;-83
2023/01/09 03:41:56;;;;;;;2.97;1.77;;;;;;;5.28;100.00;67362.31;6203486;23;20151;-82
2023/01/09 03:44:21;;;;;;;3.20;1.65;;;;;;;5.26;100.00;67359.47;6202107;23;20095;-83
2023/01/09 03:46:49;;;;;;;3.80;1.60;;;;;;;5.26;100.00;67359.47;6203152;23;20369;-82
2023/01/09 03:49:14;;;;;;;5.65;1.63;;;;;;;5.22;100.00;67358.16;6203798;23;20257;-83
2023/01/09 03:51:40;;;;;;;4.32;1.63;;;;;;;5.20;100.00;67353.25;6203938;23;20058;-83
2023/01/09 03:54:05;;;;;;;3.72;1.80;;;;;;;5.20;100.00;67353.25;6203685;23;20100;-82
2023/01/09 03:56:30;;;;;;;6.53;2.33;;;;;;;;;;6203651;23;20055;-82
2023/01/09 03:58:56;;;;;;;6.03;2.80;;;;;;;5.18;100.00;67346.31;6202352;23;20017;-82
2023/01/09 04:01:21;;;;;;;6.55;2.28;;;;;;;5.18;100.00;67351.00;6203537;23;20082;-82
2023/01/09 04:03:46;;;;;;;6.35;2.65;;;;;;;5.16;100.00;67349.31;6203396;23;20013;-82
2023/01/09 04:06:11;;;;;;;6.55;3.03;;;;;;;;;;6204360;23;20036;-84
2023/01/09 04:08:37;;;;;;;7.40;3.30;;;;;;;;;;6206878;23;20148;-83
2023/01/09 04:11:02;;;;;;;7.93;2.70;;;;;;;;;;6205811;23;20075;-83
2023/01/09 04:13:27;;;;;;;9.02;3.40;;;;;;;5.09;100.00;67341.41;6206645;23;20013;-83
2023/01/09 04:15:52;;;;;;;7.38;2.83;;;;;;;;;;6207633;23;20383;-82
2023/01/09 04:18:19;;;;;;;8.80;3.85;;;;;;;;;;6207070;23;20013;-83
2023/01/09 04:20:47;;;;;;;7.72;3.78;;;;;;;5.02;100.00;67333.50;6208348;23;20016;-84
2023/01/09 04:23:13;;;;;;;7.50;3.60;;;;;;;;;;6207140;23;20013;-83
2023/01/09 04:25:38;;;;;;;8.27;3.30;;;;;;;4.99;100.00;67332.75;6209049;23;20048;-83
2023/01/09 04:28:03;;;;;;;8.10;3.40;;;;;;;;;;6207695;23;20013;-83
2023/01/09 04:30:29;;;;;;;6.82;3.45;;;;;;;;;;6181605;23;20016;-83
2023/01/09 04:32:54;;;;;;;7.63;3.38;;;;;;;;;;6181014;23;20027;-83
2023/01/09 04:35:19;;;;;;;5.88;3.15;;;;;;;4.94;100.00;67327.09;6206331;23;20087;-83
2023/01/09 04:37:44;;;;;;;6.55;3.33;;;;;;;4.95;100.00;67325.59;6207345;23;20017;-83
2023/01/09 04:40:10;;;;;;;8.50;3.88;;;;;;;;;;6180506;23;20428;-83
2023/01/09 04:42:36;;;;;;;6.18;3.28;;;;;;;;;;6182186;23;20024;-83
2023/01/09 04:45:03;;;;;;;6.60;3.58;;;;;;;4.88;100.00;67318.25;6207629;23;20044;-83
2023/01/09 04:47:30;;;;;;;8.70;3.35;;;;;;;;;;6207827;23;20044;-83
2023/01/09 04:49:55;;;;;;;5.97;3.10;;;;;;;4.86;100.00;67315.41;6208750;23;20016;-83
2023/01/09 04:52:20;;;;;;;6.80;4.10;;;;;;;;;;6181542;23;20504;-82
2023/01/09 04:54:46;;;;;;;6.10;3.10;;;;;;;4.80;100.00;67309.22;6207993;23;20017;-83
2023/01/09 04:57:11;;;;;;;9.15;4.18;;;;;;;4.80;100.00;67309.22;6206541;23;20454;-82
2023/01/09 04:59:36;;;;;;;9.90;4.00;;;;;;;4.76;100.00;67307.34;6209368;23;20083;-82
2023/01/09 05:02:02;;;;;;;8.75;4.07;;;;;;;4.76;100.00;67304.69;6182909;23;20028;-83
2023/01/09 05:04:27;;;;;;;9.45;4.70;;;;;;;;;;6208185;23;20009;-82
2023/01/09 05:06:52;;;;;;;5.57;3.78;;;;;;;4.79;100.00;67302.25;6207794;23;20063;-82
2023/01/09 05:09:18;;;;;;;9.48;3.97;;;;;;;;;;6207664;23;20013;-82
2023/01/09 05:11:43;;;;;;;7.78;3.47;;;;;;;4.73;100.00;67301.88;6205125;23;20016;-81
2023/01/09 05:14:09;;;;;;;9.43;4.60;;;;;;;4.74;100.00;67303.00;6201884;23;20020;-82
2023/01/09 05:16:34;;;;;;;10.27;4.25;;;;;;;4.73;100.00;67301.88;6205155;23;20016;-81
2023/01/09 05:19:00;;;;;;;9.85;4.18;;;;;;;4.69;100.00;67292.09;6208463;23;20100;-82
2023/01/09 05:21:26;;;;;;;9.23;5.30;;;;;;;4.68;100.00;67298.31;6208276;23;20117;-83
2023/01/09 05:23:52;;;;;;;9.20;4.78;;;;;;;4.67;100.00;67294.53;6208111;23;20071;-82
2023/01/09 05:26:22;;;;;;;10.40;4.22;;;;;;;4.67;100.00;67295.09;6206932;23;20020;-83
2023/01/09 05:28:51;;;;;;;10.25;4.90;;;;;;;4.65;100.00;67292.84;6204765;23;20013;-83
2023/01/09 05:31:17;;;;;;;8.15;4.90;;;;;;;4.65;100.00;67292.28;6204393;23;20644;-82
2023/01/09 05:33:43;;;;;;;9.15;4.18;;;;;;;4.70;100.00;67298.50;6207147;23;20009;-82
2023/01/09 05:36:08;;;;;;;9.98;4.18;;;;;;;;;;6207017;23;20075;-82
2023/01/09 05:38:33;;;;;;;7.82;4.28;;;;;;;4.72;100.00;67294.91;6209383;23;20013;-81
2023/01/09 05:40:59;;;;;;;7.13;4.72;;;;;;;4.73;100.00;67296.59;6207619;23;20024;-82
2023/01/09 05:43:24;;;;;;;6.32;3.65;;;;;;;;;;6207178;23;20020;-82
2023/01/09 05:45:49;;;;;;;10.05;5.00;;;;;;;4.76;100.00;67304.69;6207023;23;20470;-80
2023/01/09 05:48:15;;;;;;;9.80;5.00;;;;;;;4.79;100.00;67302.25;6180656;23;20012;-82
2023/01/09 05:50:40;;;;;;;12.20;4.57;;;;;;;4.80;100.00;67308.66;6206093;23;20016;-82
2023/01/09 05:53:05;;;;;;;9.82;4.57;;;;;;;4.80;100.00;67309.22;6208922;23;20104;-83
2023/01/09 05:55:31;;;;;;;11.10;4.38;;;;;;;4.83;100.00;67312.03;6207834;23;20063;-82
2023/01/09 05:57:57;;;;;;;8.75;4.47;;;;;;;4.87;100.00;67317.13;6207356;23;20454;-83
2023/01/09 06:00:22;;;;;;;5.97;3.10;;;;;;;;;;6181498;23;20016;-83
2023/01/09 06:02:47;;;;;;;9.35;4.15;;;;;;;;;;6207781;23;20016;-82
2023/01/09 06:05:13;;;;;;;6.25;2.72;;;;;;;4.92;100.00;67325.41;6206306;23;20040;-83
2023/01/09 06:07:39;;;;;;;5.63;2.83;;;;;;;4.97;100.00;67328.41;6181410;23;20047;-81
2023/01/09 06:10:06;;;;;;;5.15;3.15;;;;;;;;;;6207072;23;20016;-81
2023/01/09 06:12:33;;;;;;;6.25;3.55;;;;;;;;;;6206047;23;20450;-82
2023/01/09 06:14:59;;;;;;;6.05;3.45;;;;;;;5.10;100.00;67341.97;6208096;23;20009;-81
2023/01/09 06:17:24;;;;;;;7.65;3.50;;;;;;;5.12;100.00;67349.50;6205856;23;20047;-82
2023/01/09 06:19:50;;;;;;;9.98;3.28;;;;;;;;;;6207883;23;20091;-83
2023/01/09 06:22:15;;;;;;;10.98;3.45;;;;;;;5.17;100.00;67345.16;6208212;23;20016;-83
2023/01/09 06:24:41;;;;;;;6.05;3.17;;;;;;;5.20;100.00;67353.81;6181356;23;20047;-83
2023/01/09 06:27:06;;;;;;;6.55;3.38;;;;;;;5.25;100.00;67358.91;6206183;23;20346;-82
2023/01/09 06:29:31;;;;;;;6.85;3.20;;;;;;;5.27;100.00;67360.63;6208083;23;20091;-83
2023/01/09 06:31:57;;;;;;;7.25;3.70;;;;;;;;;;6208529;23;20020;-82
2023/01/09 06:34:22;;;;;;;7.93;3.30;;;;;;;5.31;100.00;67365.13;6208162;23;20015;-83
2023/01/09 06:36:47;;;;;;;7.57;3.83;;;;;;;;;;6206658;23;20025;-81
2023/01/09 06:39:13;;;;;;;11.98;2.83;;;;;;;;;;6207257;23;20351;-82
2023/01/09 06:41:38;;;;;;;8.88;3.40;;;;;;;5.35;100.00;67370.22;6209030;23;20013;-81
2023/01/09 06:44:03;;;;;;;8.18;3.08;;;;;;;;;;6207660;23;20408;-83
2023/01/09 06:46:29;;;;;;;5.88;3.60;;;;;;;;;;6180066;23;20020;-81
2023/01/09 06:48:54;;;;;;;7.53;3.78;;;;;;;5.35;100.00;67369.63;6207492;23;20021;-83
2023/01/09 06:51:19;;;;;;;7.70;3.20;;;;;;;;;;6206128;23;20024;-83
2023/01/09 06:53:45;;;;;;;8.38;3.28;;;;;;;;;;6207106;23;20485;-83
2023/01/09 06:56:10;;;;;;;8.82;3.65;;;;;;;5.39;100.00;67374.16;6206302;23;20008;-83
2023/01/09 06:58:35;;;;;;;9.93;4.10;;;;;;;5.39;100.00;67379.44;6181930;23;20115;-82
2023/01/09 07:01:01;;;;;;;10.63;4.53;;;;;;;5.38;100.00;67373.03;6208487;23;20036;-83
2023/01/09 07:03:26;;;;;;;8.25;2.85;;;;;;;5.38;100.00;67368.34;6206418;23;20021;-83
2023/01/09 07:05:51;;;;;;;8.70;3.20;;;;;;;5.41;100.00;67376.44;6181203;23;20030;-82
2023/01/09 07:08:17;;;;;;;8.75;3.42;;;;;;;5.44;100.00;67379.81;6208129;23;20513;-83
2023/01/09 07:10:42;;;;;;;8.35;3.20;;;;;;;;;;6206527;23;20016;-82
2023/01/09 07:13:08;;;;;;;8.38;2.78;;;;;;;5.48;100.00;67383.78;6208953;23;20016;-83
2023/01/09 07:15:33;;;;;;;7.53;3.33;;;;;;;5.46;100.00;67384.72;6207703;23;20095;-83
2023/01/09 07:17:58;;;;;;;9.57;3.67;;;;;;;;;;6208226;23;20013;-84
2023/01/09 07:20:24;;;;;;;5.57;2.63;;;;;;;5.49;100.00;67385.47;6207405;23;20446;-83
2023/01/09 07:22:49;;;;;;;10.90;3.53;;;;;;;5.50;100.00;67389.25;6208291;23;20516;-83
2023/01/09 07:25:14;;;;;;;12.82;4.38;;;;;;;5.52;100.00;67383.00;6180908;23;20012;-83
2023/01/09 07:27:41;;;;;;;6.60;2.88;;;;;;;5.55;100.00;67386.41;6208778;23;20021;-82
2023/01/09 07:30:07;;;;;;;11.23;3.20;;;;;;;5.56;100.00;67387.53;6209479;23;20023;-83
2023/01/09 07:32:32;;;;;;;6.72;1.95;;;;;;;5.56;100.00;67388.09;6207600;23;20024;-83
2023/01/09 07:34:58;;;;;;;5.40;2.45;;;;;;;;;;6208357;23;20028;-82
2023/01/09 07:37:23;;;;;;;8.85;2.65;;;;;;;;;;6207426;23;20027;-83
2023/01/09 07:39:48;;;;;;;9.15;2.67;;;;;;;5.61;100.00;67399.03;6208764;23;20016;-83
2023/01/09 07:42:14;;;;;;;12.18;3.50;;;;;;;;;;6208214;23;20019;-83
2023/01/09 07:44:39;;;;;;;6.53;2.88;;;;;;;5.64;100.00;67401.84;6208709;23;20024;-83
2023/01/09 07:47:05;;;;;;;6.80;3.55;;;;;;;5.65;100.00;67398.25;6207655;23;20024;-82
2023/01/09 07:49:30;;;;;;;11.43;3.95;;;;;;;5.69;100.00;67401.66;6209360;23;20023;-83
2023/01/09 07:51:55;;;;;;;6.97;2.47;;;;;;;;;;6207227;23;20017;-83
2023/01/09 07:54:21;;;;;;;9.43;3.75;;;;;;;5.72;100.00;67410.31;6208018;23;20048;-82
2023/01/09 07:56:46;;;;;;;7.22;2.20;;;;;;;5.74;100.00;67407.31;6206732;23;20079;-83
2023/01/09 07:59:12;;;;;;;8.55;2.58;;;;;;;5.75;100.00;67414.28;6208214;23;20472;-82
2023/01/09 08:01:37;;;;;;;8.30;2.97;;;;;;;5.79;100.00;67412.97;6206391;23;20458;-82
2023/01/09 08:04:03;;;;;;;5.78;2.28;;;;;;;5.78;100.00;67417.69;6209558;23;20322;-83
2023/01/09 08:06:30;;;;;;;7.35;2.53;;;;;;;5.81;100.00;67421.06;6207734;23;20039;-83
2023/01/09 08:08:56;;;;;;;8.50;2.95;;;;;;;;;;6208746;23;20008;-83
2023/01/09 08:11:21;;;;;;;8.88;2.08;;;;;;;;;;6208910;23;20017;-82
2023/01/09 08:13:47;;;;;;;9.70;2.33;;;;;;;5.91;100.00;67426.53;6209856;23;20028;-83
2023/01/09 08:16:12;;;;;;;5.35;1.95;;;;;;;5.94;100.00;67429.94;6209087;23;20019;-83
2023/01/09 08:18:37;;;;;;;10.90;3.22;;;;;;;5.97;100.00;67441.25;6209117;23;20012;-83
2023/01/09 08:21:03;;;;;;;8.65;2.45;;;;;;;6.00;100.00;67442.00;6207977;23;20609;-83
2023/01/09 08:23:28;;;;;;;7.03;2.50;;;;;;;6.04;100.00;67445.94;6209966;23;20385;-82
2023/01/09 08:25:53;;;;;;;6.03;2.10;;;;;;;6.06;100.00;67443.50;6209640;23;20017;-83
2023/01/09 08:28:19;;;;;;;10.85;2.53;;;;;;;6.08;100.00;67445.75;6218290;23;20027;-81
2023/01/09 08:30:45;;;;;;;9.00;3.05;;;;;;;6.09;100.00;67446.88;6194414;23;20023;-82
2023/01/09 08:33:11;;;;;;;8.73;2.65;;;;;;;;;;6221040;23;20027;-82
2023/01/09 08:35:36;;;;;;;13.00;2.70;;;;;;;;;;6219885;23;20036;-81
2023/01/09 08:38:02;;;;;;;6.13;2.42;;;;;;;;;;6212156;23;20028;-82
2023/01/09 08:40:27;;;;;;;7.93;2.55;;;;;;;;;;6208256;23;20014;-82
2023/01/09 08:48:20;;;;;;;6.82;2.95;;;;;;;5.95;100.00;67436.34;6207511;23;20030;-83
2023/01/09 08:50:45;;;;;;;11.98;2.90;;;;;;;;;;6208485;23;20016;-82
2023/01/09 08:53:11;;;;;;;9.02;3.13;;;;;;;;;;6209732;23;20074;-82
2023/01/09 08:55:36;;;;;;;12.80;3.38;;;;;;;5.94;100.00;67435.22;6205699;23;20013;-82
2023/01/09 08:58:01;;;;;;;7.70;3.30;;;;;;;5.93;100.00;67434.09;6209697;23;20426;-82
2023/01/09 09:00:27;;;;;;;11.55;3.83;;;;;;;5.95;100.00;67438.41;6207853;23;20026;-82
2023/01/09 09:02:53;;;;;;;12.45;3.45;;;;;;;;;;6209435;23;20100;-82
2023/01/09 09:05:19;;;;;;;11.90;3.10;;;;;;;5.98;100.00;67441.81;6206362;23;20068;-81
2023/01/09 09:07:49;;;;;;;8.48;2.40;;;;;;;5.96;100.00;67431.63;6209236;23;20024;-82
2023/01/09 09:10:18;;;;;;;9.88;3.95;;;;;;;5.97;100.00;67433.31;6208580;23;20041;-81
2023/01/09 09:12:43;;;;;;;17.00;4.93;;;;;;;5.98;100.00;67439.16;6209312;23;20020;-81
2023/01/09 09:15:15;;;;;;;13.00;4.40;;;;;;;5.95;100.00;67436.34;6181511;23;20337;-81
2023/01/09 09:17:40;;;;;;;8.65;3.85;;;;;;;;;;6208950;23;20498;-82
2023/01/09 09:20:07;;;;;;;9.43;3.22;;;;;;;5.95;100.00;67431.06;6208602;23;20047;-83
2023/01/09 09:22:32;;;;;;;5.35;2.95;;;;;;;5.93;100.00;67433.47;6209049;23;20013;-82
2023/01/09 09:24:58;;;;;;;9.63;4.97;;;;;;;;;;6207772;23;20024;-82
2023/01/09 09:27:23;;;;;;;8.95;5.35;;;;;;;;;;6207920;23;20034;-82
2023/01/09 09:29:48;;;;;;;8.70;3.95;;;;;;;;;;6209218;23;20044;-81
2023/01/09 09:32:14;;;;;;;10.00;4.88;;;;;;;5.96;100.00;67437.47;6208246;23;20016;-81
2023/01/09 09:34:39;;;;;;;12.30;4.78;;;;;;;5.97;100.00;67432.75;6206797;23;20016;-82
2023/01/09 09:37:05;;;;;;;9.30;3.85;;;;;;;5.95;100.00;67430.50;6210194;23;20024;-81
2023/01/09 09:39:30;;;;;;;9.77;4.07;;;;;;;;;;6182528;23;20047;-81
2023/01/09 09:45:05;;;;;;;9.77;4.57;;;;;;;5.97;100.00;67441.25;6184454;23;20028;-81
2023/01/09 09:47:31;;;;;;;13.63;5.40;;;;;;;5.98;100.00;67434.44;6207150;23;20039;-81
2023/01/09 09:50:35;;;;;;;14.82;5.88;;;;;;;6.00;100.00;67442.00;6208247;23;20465;-82
2023/01/09 09:53:16;;;;;;;8.75;4.60;;;;;;;6.01;100.00;67442.56;6145166;23;20029;-81
2023/01/09 09:55:41;;;;;;;12.30;4.32;;;;;;;;;;6101502;23;20018;-81
2023/01/09 09:58:21;;;;;;;12.35;4.95;;;;;;;;;;6176035;23;20351;-82
2023/01/09 10:00:48;;;;;;;15.05;5.18;;;;;;;;;;6208236;23;20473;-82
2023/01/09 10:03:30;;;;;;;9.63;4.35;;;;;;;6.08;100.00;67451.03;6207235;23;20095;-82
2023/01/09 10:05:57;;;;;;;14.95;5.32;;;;;;;6.12;100.00;67455.00;6207685;23;20024;-82
2023/01/09 10:08:35;;;;;;;11.25;4.65;;;;;;;6.10;100.00;67448.03;6207651;23;20016;-82
2023/01/09 10:11:01;;;;;;;10.50;5.20;;;;;;;;;;6208403;23;20339;-82
2023/01/09 10:16:22;;;;;;;10.23;4.68;;;;;;;;;;6207517;23;20024;-82
2023/01/09 10:19:04;;;;;;;8.75;3.97;;;;;;;6.21;100.00;67464.59;6183261;23;20021;-82
2023/01/09 10:21:48;;;;;;;8.88;4.72;;;;;;;;;;6206996;23;20016;-82
2023/01/09 10:24:13;;;;;;;11.00;4.55;;;;;;;;;;6207899;23;20017;-82
2023/01/09 10:26:49;;;;;;;12.20;5.00;;;;;;;6.37;100.00;67476.84;6179371;23;20339;-81
2023/01/09 10:29:24;;;;;;;10.40;3.97;;;;;;;;;;6208435;23;20629;-82
2023/01/09 10:32:35;;;;;;;10.75;4.65;;;;;;;6.35;100.00;67479.88;6183853;23;20095;-83
2023/01/09 10:35:38;;;;;;;13.02;4.95;;;;;;;6.36;100.00;67481.56;6152863;23;20494;-82
2023/01/09 10:38:07;;;;;;;7.03;3.08;;;;;;;6.36;100.00;67481.56;6203735;23;20028;-81
2023/01/09 10:40:40;;;;;;;11.63;3.85;;;;;;;;;;6204634;23;20020;-82
2023/01/09 10:43:10;;;;;;;10.10;4.10;;;;;;;;;;6208073;23;20417;-82
2023/01/09 10:45:46;;;;;;;11.68;4.25;;;;;;;6.40;100.00;67486.09;6205797;23;20027;-82
2023/01/09 10:48:30;;;;;;;7.13;3.50;;;;;;;6.40;100.00;67491.38;6207748;23;20028;-82
2023/01/09 10:50:56;;;;;;;7.75;4.32;;;;;;;6.41;100.00;67487.22;6158738;23;20021;-81
2023/01/09 10:53:24;;;;;;;12.32;5.15;;;;;;;;;;6207370;23;20013;-82
2023/01/09 10:55:51;;;;;;;10.15;4.43;;;;;;;;;;6206681;23;20016;-82
2023/01/09 10:58:19;;;;;;;13.98;6.32;;;;;;;6.39;100.00;67479.69;6207591;23;20451;-81
2023/01/09 11:00:47;;;;;;;20.55;9.45;;;;;;;6.41;100.00;67486.66;6206965;23;20087;-81
2023/01/09 11:03:15;;;;;;;16.85;9.00;;;;;;;6.40;100.00;67480.25;6208642;23;20020;-82
2023/01/09 11:05:41;;;;;;;9.48;5.75;;;;;;;;;;6205189;23;20016;-81
2023/01/09 11:08:12;;;;;;;13.55;3.72;;;;;;;6.38;100.00;67478.53;6207849;23;20021;-82
2023/01/09 11:10:43;;;;;;;6.07;3.95;;;;;;;;;;6207706;23;20320;-82
2023/01/09 11:13:30;;;;;;;9.25;4.00;;;;;;;6.38;100.00;67477.97;6207391;23;20029;-83
2023/01/09 11:16:03;;;;;;;8.88;4.63;;;;;;;;;;6184876;23;20081;-82
2023/01/09 11:18:29;;;;;;;10.27;5.43;;;;;;;;;;6180150;23;20417;-82
2023/01/09 11:20:54;;;;;;;8.80;5.00;;;;;;;6.56;100.00;67498.34;6207426;23;20046;-82
2023/01/09 11:23:32;;;;;;;9.07;5.22;;;;;;;6.60;100.00;67507.59;6207805;23;20425;-82
2023/01/09 11:26:00;;;;;;;7.03;3.47;;;;;;;6.60;100.00;67500.22;6180305;23;20357;-82
2023/01/09 11:28:25;;;;;;;8.23;4.70;;;;;;;;;;6208036;23;20020;-82
2023/01/09 11:31:01;;;;;;;9.45;4.50;;;;;;;6.72;100.00;67516.41;6207542;23;20021;-82
2023/01/09 11:33:41;;;;;;;8.68;3.90;;;;;;;;;;6209512;23;20024;-82
2023/01/09 11:36:09;;;;;;;10.50;4.45;;;;;;;;;;6207257;23;20055;-81
2023/01/09 11:38:51;;;;;;;5.72;3.35;;;;;;;6.74;100.00;67518.13;6181995;23;20055;-82
2023/01/09 11:41:17;;;;;;;7.00;4.13;;;;;;;;;;6205315;23;20035;-82
2023/01/09 11:43:44;;;;;;;10.07;4.35;;;;;;;;;;6208714;23;20036;-82
2023/01/09 11:46:28;;;;;;;7.05;3.08;;;;;;;;;;6210085;23;20013;-82
2023/01/09 11:48:55;;;;;;;4.47;2.47;;;;;;;6.94;100.00;67546.03;6191838;23;20020;-82
2023/01/09 11:51:22;;;;;;;6.28;4.43;;;;;;;;;;6216325;23;20114;-82
2023/01/09 11:53:58;;;;;;;6.07;3.75;;;;;;;6.99;100.00;67545.81;6215048;23;20016;-81
2023/01/09 11:56:23;;;;;;;6.10;3.85;;;;;;;;;;6212534;23;20038;-82
2023/01/09 11:58:48;;;;;;;6.85;3.30;;;;;;;;;;6214808;23;20458;-82
2023/01/09 12:01:29;;;;;;;7.03;4.03;;;;;;;;;;6214528;23;20327;-81
2023/01/09 12:04:23;;;;;;;6.93;3.92;;;;;;;7.05;100.00;67550.00;6157655;23;20017;-82
2023/01/09 12:06:56;;;;;;;10.57;4.45;;;;;;;;;;6191567;23;20071;-82
2023/01/09 12:10:01;;;;;;;9.30;3.95;;;;;;;7.04;100.00;67550.94;6215579;23;20012;-82
2023/01/09 12:12:42;;;;;;;7.47;4.60;;;;;;;7.16;100.00;67569.78;6215641;23;20028;-82
2023/01/09 12:15:31;;;;;;;6.25;4.03;;;;;;;7.20;100.00;67574.34;6214873;23;20013;-82
2023/01/09 12:18:02;;;;;;;7.78;4.55;;;;;;;7.27;100.00;67574.28;6193206;23;20115;-82
2023/01/09 12:20:48;;;;;;;10.43;4.47;;;;;;;7.32;100.00;67582.03;6187919;23;20095;-82
2023/01/09 12:23:27;;;;;;;7.47;4.40;;;;;;;7.34;100.00;67589.63;6185037;23;20025;-82
2023/01/09 12:26:29;;;;;;;7.63;4.07;;;;;;;7.35;100.00;67591.31;6192024;23;20071;-82
2023/01/09 12:29:10;;;;;;;8.70;4.38;;;;;;;7.35;100.00;67586.00;6196203;23;20023;-82
2023/01/09 12:31:56;;;;;;;8.35;4.40;;;;;;;;;;6219858;23;20023;-82
2023/01/09 12:34:40;;;;;;;10.93;4.53;;;;;;;7.33;100.00;67580.53;6219846;23;20013;-82
2023/01/09 12:37:47;;;;;;;7.68;4.40;;;;;;;7.32;100.00;67587.34;6217185;23;20143;-82
2023/01/09 12:40:15;;;;;;;8.60;3.58;;;;;;;;;;6196355;23;20048;-82
2023/01/09 12:43:04;;;;;;;14.57;5.25;;;;;;;7.25;100.00;67574.69;6190345;23;20446;-82
2023/01/09 12:45:46;;;;;;;7.82;4.40;;;;;;;7.15;100.00;67563.38;6186428;23;20024;-81
2023/01/09 12:48:20;;;;;;;7.18;4.68;;;;;;;;;;6189054;23;20021;-82
2023/01/09 12:51:17;;;;;;;8.18;3.67;;;;;;;6.99;100.00;67543.75;6194425;23;20027;-81
2023/01/09 12:53:49;;;;;;;9.07;5.30;;;;;;;6.94;100.00;67546.03;6219096;23;20346;-81
2023/01/09 12:56:17;;;;;;;5.38;3.15;;;;;;;;;;6217309;23;20614;-83